Time;durP1;ratioP1;P1;durP2;ratioP2;P2;SDS_P1;SDS_P2;PMS_P1;PMS_P2;Temp;Humidity;BMP_temperature;BMP_pressure;BME280_temperature;BME280_humidity;BME280_pressure;Samples;Min_cycle;Max_cycle;Signal;HPM_P1;HPM_P2
2024/03/12 00:01:26;;;;;;;23.60;13.70;;;;;;;12.28;54.88;102133.31;107048;1257;25366;-55
2024/03/12 00:03:54;;;;;;;23.00;13.40;;;;;;;12.26;54.80;102137.86;106401;1251;1003745;-55
2024/03/12 00:06:22;;;;;;;19.80;13.90;;;;;;;12.17;55.02;102136.88;106812;1273;22531;-55
2024/03/12 00:08:49;;;;;;;19.80;12.70;;;;;;;12.15;54.94;102135.49;107018;1258;25533;-55
2024/03/12 00:11:16;;;;;;;21.50;13.20;;;;;;;12.18;54.87;102138.09;107067;1264;25312;-55
2024/03/12 00:13:43;;;;;;;20.00;12.90;;;;;;;12.19;54.63;102139.13;106428;1251;1002907;-55
2024/03/12 00:16:11;;;;;;;20.10;13.60;;;;;;;12.19;54.49;102140.34;106805;1254;25354;-55
2024/03/12 00:18:40;;;;;;;20.60;13.90;;;;;;;12.18;54.57;102136.52;107064;1258;25430;-55
2024/03/12 00:21:07;;;;;;;24.10;14.10;;;;;;;12.17;54.51;102130.79;107122;1264;25419;-55
2024/03/12 00:23:34;;;;;;;22.80;14.60;;;;;;;12.15;54.65;102126.96;107024;1257;25435;-55
2024/03/12 00:26:03;;;;;;;23.30;13.50;;;;;;;12.15;54.65;102126.27;107081;1256;25360;-55
2024/03/12 00:28:31;;;;;;;19.60;14.30;;;;;;;12.16;54.61;102130.95;107054;1264;25340;-55
2024/03/12 00:30:59;;;;;;;19.80;13.70;;;;;;;12.17;54.61;102129.58;107141;1257;25369;-55
2024/03/12 00:33:26;;;;;;;26.10;15.10;;;;;;;12.17;54.80;102134.61;107010;1255;25358;-55
2024/03/12 00:35:53;;;;;;;20.40;13.60;;;;;;;12.17;54.84;102126.44;107051;1262;25462;-55
2024/03/12 00:38:20;;;;;;;19.40;12.70;;;;;;;12.17;54.80;102122.27;107013;1257;25559;-55
2024/03/12 00:40:50;;;;;;;23.80;12.90;;;;;;;12.18;54.74;102131.98;107108;1257;25340;-55
2024/03/12 00:43:17;;;;;;;23.00;13.10;;;;;;;12.17;54.72;102137.04;106825;1267;25390;-56
2024/03/12 00:45:44;;;;;;;18.50;13.00;;;;;;;12.12;54.80;102138.11;106960;1257;24676;-55
2024/03/12 00:48:17;;;;;;;25.60;14.00;;;;;;;12.16;54.78;102122.45;107073;1258;25403;-55
2024/03/12 00:50:46;;;;;;;23.40;13.50;;;;;;;12.17;54.76;102111.13;107033;1267;25399;-55
2024/03/12 00:53:13;;;;;;;27.90;13.60;;;;;;;12.17;54.81;102106.79;106979;1257;25385;-55
2024/03/12 00:55:40;;;;;;;23.20;14.30;;;;;;;12.16;54.79;102106.08;107070;1267;25458;-55
2024/03/12 00:58:12;;;;;;;20.50;13.10;;;;;;;12.15;54.91;102108.01;107065;1257;25328;-55
2024/03/12 01:00:40;;;;;;;21.70;13.50;;;;;;;12.14;54.83;102114.45;106964;1257;25354;-55
2024/03/12 01:03:11;;;;;;;25.30;13.60;;;;;;;12.14;54.72;102113.23;106348;1255;1003525;-55
2024/03/12 01:05:38;;;;;;;24.20;14.20;;;;;;;12.12;54.71;102107.16;106789;1267;22537;-56
2024/03/12 01:08:07;;;;;;;22.50;13.70;;;;;;;12.10;54.86;102114.48;107086;1254;22711;-55
2024/03/12 01:10:34;;;;;;;22.50;14.00;;;;;;;12.09;54.97;102106.48;107028;1258;25355;-55
2024/03/12 01:13:02;;;;;;;22.10;13.50;;;;;;;12.09;55.06;102098.14;107124;1257;25350;-55
2024/03/12 01:15:30;;;;;;;25.70;14.10;;;;;;;12.09;55.18;102084.05;106916;1259;22535;-55
2024/03/12 01:17:58;;;;;;;21.80;14.60;;;;;;;12.08;55.21;102070.48;106673;1257;25379;-55
2024/03/12 01:20:26;;;;;;;28.30;13.90;;;;;;;12.07;55.25;102060.23;107060;1267;25516;-55
2024/03/12 01:22:54;;;;;;;22.60;14.50;;;;;;;12.05;55.36;102058.33;106382;1258;1002958;-55
2024/03/12 01:25:21;;;;;;;24.60;13.70;;;;;;;12.06;55.31;102063.88;106723;1261;25354;-55
2024/03/12 01:27:49;;;;;;;21.80;13.60;;;;;;;12.08;55.33;102065.42;106822;1261;24231;-55
2024/03/12 01:30:16;;;;;;;21.80;13.80;;;;;;;12.02;55.53;102076.61;107145;1252;25359;-55
2024/03/12 01:32:47;;;;;;;26.50;14.40;;;;;;;11.98;55.73;102078.02;106980;1257;23325;-55
2024/03/12 01:35:14;;;;;;;24.70;13.70;;;;;;;11.98;55.78;102067.09;107064;1255;25516;-55
2024/03/12 01:37:43;;;;;;;19.90;13.70;;;;;;;12.04;55.62;102074.00;107060;1262;25380;-55
2024/03/12 01:40:19;;;;;;;21.50;15.00;;;;;;;12.04;55.56;102069.82;106794;1260;25261;-55
2024/03/12 01:42:51;;;;;;;24.00;13.70;;;;;;;12.01;55.70;102068.80;106852;1257;22573;-55
2024/03/12 01:45:22;;;;;;;26.70;15.20;;;;;;;11.96;55.87;102073.70;107094;1256;25403;-55
2024/03/12 01:47:50;;;;;;;;;;;;;;;11.96;55.89;102058.56;107211;1255;22525;-55
2024/03/12 01:50:18;;;;;;;21.10;13.70;;;;;;;12.00;55.81;102048.28;107073;1256;25351;-55
2024/03/12 01:52:46;;;;;;;20.70;13.40;;;;;;;12.01;55.81;102029.14;106816;1256;25410;-55
2024/03/12 01:55:14;;;;;;;20.10;13.80;;;;;;;12.02;55.74;102015.56;106902;1254;25379;-55
2024/03/12 01:57:41;;;;;;;26.40;14.30;;;;;;;12.02;55.86;102002.35;106775;1255;22538;-55
2024/03/12 02:00:18;;;;;;;20.70;13.70;;;;;;;12.03;55.95;102008.96;107028;1255;22536;-55
2024/03/12 02:02:47;;;;;;;21.80;13.30;;;;;;;12.05;55.93;102028.24;106881;1269;25340;-55
2024/03/12 02:05:14;;;;;;;22.00;13.80;;;;;;;12.06;55.93;102047.02;107010;1253;22646;-55
2024/03/12 02:07:45;;;;;;;23.80;15.10;;;;;;;12.07;56.01;102031.19;107063;1257;25505;-55
2024/03/12 02:10:13;;;;;;;24.10;14.40;;;;;;;12.08;55.99;102016.05;106842;1267;24254;-55
2024/03/12 02:12:41;;;;;;;22.90;14.20;;;;;;;12.09;56.04;102019.52;106767;1272;25476;-55
2024/03/12 02:15:08;;;;;;;21.30;13.70;;;;;;;12.10;55.95;102014.98;107161;1254;25341;-55
2024/03/12 02:17:35;;;;;;;21.10;14.20;;;;;;;12.10;55.95;102005.75;107021;1256;25424;-55
2024/03/12 02:20:04;;;;;;;21.80;14.80;;;;;;;12.11;56.01;102016.73;106984;1257;25350;-55
2024/03/12 02:22:32;;;;;;;23.60;14.00;;;;;;;12.12;56.11;102040.19;106799;1257;25363;-55
2024/03/12 02:24:59;;;;;;;28.40;14.80;;;;;;;12.13;56.07;102045.05;107075;1264;25352;-55
2024/03/12 02:27:26;;;;;;;24.50;14.30;;;;;;;12.13;56.10;102049.39;107193;1255;25453;-55
2024/03/12 02:29:54;;;;;;;26.00;14.20;;;;;;;12.14;56.06;102062.42;106310;1256;1002938;-55
2024/03/12 02:32:22;;;;;;;26.00;14.20;;;;;;;12.14;56.10;102068.52;107002;1256;25400;-55
2024/03/12 02:34:50;;;;;;;22.70;14.20;;;;;;;12.14;56.14;102081.21;107036;1267;25377;-55
2024/03/12 02:37:17;;;;;;;24.20;13.30;;;;;;;12.14;56.18;102049.55;107073;1257;25350;-55
2024/03/12 02:39:44;;;;;;;21.30;13.90;;;;;;;12.15;56.15;102036.33;107106;1258;25464;-55
2024/03/12 02:42:11;;;;;;;19.90;13.60;;;;;;;12.14;56.13;102052.52;107048;1253;25554;-55
2024/03/12 02:44:38;;;;;;;24.80;15.00;;;;;;;12.14;56.09;102054.44;107088;1258;25373;-55
2024/03/12 02:47:06;;;;;;;19.30;13.10;;;;;;;12.13;56.17;102055.49;106787;1263;24200;-55
2024/03/12 02:49:33;;;;;;;24.80;13.30;;;;;;;12.13;56.27;102054.27;106828;1256;24291;-55
2024/03/12 02:52:00;;;;;;;19.10;13.40;;;;;;;12.13;56.08;102058.45;106684;1256;25494;-55
2024/03/12 02:54:27;;;;;;;22.40;13.60;;;;;;;12.11;56.14;102062.81;106787;1257;25328;-55
2024/03/12 02:56:54;;;;;;;21.00;13.80;;;;;;;12.11;56.17;102065.43;106655;1257;25388;-55
2024/03/12 02:59:22;;;;;;;20.00;13.40;;;;;;;12.09;56.13;102067.70;106088;1264;1003678;-55
2024/03/12 03:01:49;;;;;;;21.30;12.60;;;;;;;12.10;56.16;102065.42;107101;1257;25458;-55
2024/03/12 03:04:16;;;;;;;22.50;13.10;;;;;;;12.10;56.17;102060.90;107093;1257;25515;-55
2024/03/12 03:06:44;;;;;;;22.90;12.60;;;;;;;12.10;56.26;102053.95;107049;1255;22527;-55
2024/03/12 03:09:12;;;;;;;26.90;13.80;;;;;;;12.10;56.17;102050.29;106492;1274;25469;-55
2024/03/12 03:11:39;;;;;;;27.00;14.40;;;;;;;12.09;56.17;102045.61;106954;1268;24247;-55
2024/03/12 03:14:06;;;;;;;19.10;13.30;;;;;;;12.08;56.14;102020.58;107074;1254;25354;-55
2024/03/12 03:16:34;;;;;;;19.80;13.00;;;;;;;12.07;56.20;102004.57;107042;1257;25390;-55
2024/03/12 03:19:01;;;;;;;24.70;14.00;;;;;;;12.01;56.36;101983.05;106934;1256;25472;-55
2024/03/12 03:21:29;;;;;;;23.00;13.70;;;;;;;11.91;56.70;101979.84;107040;1258;25402;-55
2024/03/12 03:23:57;;;;;;;23.10;13.60;;;;;;;11.87;56.82;101974.65;106964;1256;25469;-55
2024/03/12 03:26:24;;;;;;;25.50;13.20;;;;;;;11.76;57.25;101974.38;107025;1253;25369;-55
2024/03/12 03:28:51;;;;;;;22.70;13.20;;;;;;;11.82;57.17;101965.13;106981;1257;25325;-55
2024/03/12 03:31:19;;;;;;;24.20;14.50;;;;;;;11.95;56.75;101933.19;106829;1267;25341;-55
2024/03/12 03:33:47;;;;;;;24.90;14.30;;;;;;;11.96;56.73;101906.41;106964;1264;25399;-55
2024/03/12 03:36:14;;;;;;;26.10;13.60;;;;;;;11.82;57.21;101912.79;107071;1253;25369;-56
2024/03/12 03:38:41;;;;;;;22.50;13.70;;;;;;;11.71;57.61;101964.17;107130;1257;25452;-55
2024/03/12 03:41:09;;;;;;;26.00;13.60;;;;;;;11.69;57.68;102017.19;107014;1257;25341;-55
2024/03/12 03:43:37;;;;;;;23.50;12.60;;;;;;;11.69;57.81;102018.41;106797;1260;22615;-55
2024/03/12 03:46:05;;;;;;;24.80;13.30;;;;;;;11.69;57.70;102017.54;107150;1254;25265;-55
2024/03/12 03:48:33;;;;;;;25.30;13.80;;;;;;;11.88;57.29;102011.69;106954;1252;22607;-55
2024/03/12 03:51:00;;;;;;;24.40;14.50;;;;;;;11.93;57.02;102007.47;107081;1257;25468;-55
2024/03/12 03:53:28;;;;;;;23.60;14.30;;;;;;;11.92;57.06;102009.38;107042;1256;25472;-56
2024/03/12 03:55:55;;;;;;;20.00;12.70;;;;;;;11.91;57.09;102011.66;106873;1255;24407;-55
2024/03/12 03:58:25;;;;;;;24.30;12.60;;;;;;;11.90;57.06;102014.10;107217;1260;25338;-55
2024/03/12 04:00:52;;;;;;;26.20;12.70;;;;;;;11.90;57.06;102011.31;106758;1265;25338;-55
2024/03/12 04:03:19;;;;;;;21.30;13.70;;;;;;;11.89;57.05;102006.45;107108;1257;25389;-55
2024/03/12 04:05:47;;;;;;;24.00;12.20;;;;;;;11.90;57.07;102012.52;107018;1253;25389;-55
2024/03/12 04:08:16;;;;;;;26.30;12.80;;;;;;;11.89;57.05;102013.75;106275;1264;1003776;-55
2024/03/12 04:10:43;;;;;;;19.80;13.00;;;;;;;11.89;57.04;102021.41;107053;1263;22543;-55
2024/03/12 04:13:10;;;;;;;23.10;12.50;;;;;;;11.88;57.05;102026.80;107081;1256;25472;-55
2024/03/12 04:15:37;;;;;;;24.60;12.70;;;;;;;11.88;57.11;102029.94;107151;1257;25341;-55
2024/03/12 04:18:05;;;;;;;21.50;13.00;;;;;;;11.89;57.05;102024.73;106759;1259;24502;-56
2024/03/12 04:20:32;;;;;;;29.30;14.40;;;;;;;11.88;57.03;102021.08;106974;1256;25364;-55
2024/03/12 04:23:01;;;;;;;22.80;13.40;;;;;;;11.88;57.13;102018.10;106376;1257;1003527;-55
2024/03/12 04:25:28;;;;;;;24.20;14.00;;;;;;;11.88;57.08;102021.59;107149;1256;25480;-55
2024/03/12 04:27:55;;;;;;;20.20;13.00;;;;;;;11.88;56.95;102008.55;107007;1257;25414;-55
2024/03/12 04:30:22;;;;;;;24.00;12.80;;;;;;;11.87;56.93;101999.00;107070;1253;25399;-55
2024/03/12 04:32:50;;;;;;;32.20;13.70;;;;;;;11.88;56.97;101998.81;107039;1254;23047;-55
2024/03/12 04:35:17;;;;;;;21.50;13.00;;;;;;;11.89;57.06;101999.69;106827;1271;25366;-55
2024/03/12 04:37:44;;;;;;;25.60;13.90;;;;;;;11.89;56.99;102003.15;107147;1267;25491;-55
2024/03/12 04:40:11;;;;;;;24.70;13.10;;;;;;;11.90;57.00;102001.40;106997;1252;25370;-55
2024/03/12 04:42:39;;;;;;;25.00;12.90;;;;;;;11.91;57.04;101997.05;107068;1260;25490;-55
2024/03/12 04:45:08;;;;;;;26.40;13.60;;;;;;;11.91;56.95;101993.39;107134;1252;25352;-55
2024/03/12 04:47:37;;;;;;;25.80;13.20;;;;;;;11.91;56.97;101991.48;107120;1254;24329;-55
2024/03/12 04:50:07;;;;;;;19.20;12.70;;;;;;;11.91;56.90;101989.04;106891;1258;25344;-55
2024/03/12 04:52:35;;;;;;;25.00;13.10;;;;;;;11.93;56.91;101990.09;107019;1259;25351;-55
2024/03/12 04:55:04;;;;;;;23.40;13.60;;;;;;;11.93;56.89;101994.95;106826;1259;25419;-56
2024/03/12 04:57:32;;;;;;;22.70;11.70;;;;;;;11.93;56.93;101995.82;107000;1256;25469;-55
2024/03/12 04:59:59;;;;;;;25.00;13.30;;;;;;;11.93;56.81;102002.95;107166;1257;25801;-55
2024/03/12 05:02:26;;;;;;;23.90;12.70;;;;;;;11.93;56.86;102002.77;106065;1258;1003769;-55
2024/03/12 05:04:53;;;;;;;21.30;12.20;;;;;;;11.93;56.83;101998.77;106849;1258;24261;-55
2024/03/12 05:07:20;;;;;;;20.60;12.10;;;;;;;11.94;56.81;101997.55;107043;1254;25449;-55
2024/03/12 05:09:47;;;;;;;23.30;12.60;;;;;;;11.94;56.94;101994.42;107018;1257;25407;-55
2024/03/12 05:12:14;;;;;;;17.10;11.00;;;;;;;11.96;56.88;101990.05;106895;1258;25377;-55
2024/03/12 05:14:42;;;;;;;23.70;11.80;;;;;;;11.97;56.84;101988.64;107237;1264;25392;-55
2024/03/12 05:17:09;;;;;;;28.20;13.20;;;;;;;11.99;56.66;101980.28;107037;1256;25379;-55
2024/03/12 05:19:36;;;;;;;24.60;13.00;;;;;;;12.01;56.71;101975.41;106372;1252;1003425;-55
2024/03/12 05:22:03;;;;;;;24.10;12.80;;;;;;;12.02;56.73;101969.31;106948;1256;25379;-55
2024/03/12 05:24:33;;;;;;;21.30;12.70;;;;;;;12.03;56.71;101970.16;106865;1255;25341;-56
2024/03/12 05:27:01;;;;;;;23.50;12.80;;;;;;;12.05;56.54;101968.07;106857;1256;25428;-56
2024/03/12 05:29:42;;;;;;;24.40;12.00;;;;;;;12.07;56.44;101972.23;106764;1252;22765;-56
2024/03/12 05:32:18;;;;;;;26.30;13.90;;;;;;;12.09;56.38;101973.95;106648;1256;25555;-56
2024/03/12 05:34:52;;;;;;;20.00;13.00;;;;;;;12.10;56.44;101976.73;106892;1254;25889;-56
2024/03/12 05:37:29;;;;;;;24.70;12.00;;;;;;;12.10;56.52;101974.11;106783;1253;25373;-56
2024/03/12 05:40:17;;;;;;;18.30;10.70;;;;;;;12.12;56.57;101969.05;106913;1256;25423;-56
2024/03/12 05:48:17;;;;;;;18.60;11.10;;;;;;;11.87;57.20;101971.69;106484;1267;25468;-56
2024/03/12 05:50:44;;;;;;;21.80;11.30;;;;;;;11.88;57.12;101967.16;106630;1255;25562;-58
2024/03/12 05:53:10;;;;;;;20.70;11.80;;;;;;;11.88;57.20;101963.34;106683;1260;24305;-56
2024/03/12 05:55:40;;;;;;;24.00;12.90;;;;;;;11.90;57.16;101962.11;107058;1257;25425;-56
2024/03/12 05:58:08;;;;;;;24.10;11.90;;;;;;;11.92;57.25;101953.92;107139;1256;25376;-56
2024/03/12 06:00:36;;;;;;;20.40;11.60;;;;;;;12.08;56.72;101956.21;106868;1267;25365;-56
2024/03/12 06:03:03;;;;;;;19.70;12.10;;;;;;;12.22;56.35;101956.43;107144;1268;22645;-56
2024/03/12 06:05:30;;;;;;;17.50;10.60;;;;;;;12.27;56.18;101958.30;107191;1256;25341;-55
2024/03/12 06:07:59;;;;;;;19.90;11.90;;;;;;;12.30;56.02;101956.02;106349;1257;1003799;-56
2024/03/12 06:10:27;;;;;;;24.60;11.10;;;;;;;12.33;55.93;101954.25;106827;1259;25407;-56
2024/03/12 06:12:54;;;;;;;27.30;11.80;;;;;;;12.33;55.80;101951.63;106839;1256;25351;-56
2024/03/12 06:15:21;;;;;;;19.70;11.20;;;;;;;12.36;55.76;101949.16;106831;1257;25435;-56
2024/03/12 06:17:47;;;;;;;22.50;11.70;;;;;;;12.40;55.73;101943.73;106655;1257;23239;-56
2024/03/12 06:20:15;;;;;;;21.60;11.80;;;;;;;12.43;55.63;101944.37;106834;1252;25364;-56
2024/03/12 06:22:43;;;;;;;19.30;11.20;;;;;;;12.46;55.56;101939.65;106829;1252;25363;-55
2024/03/12 06:25:10;;;;;;;19.00;11.00;;;;;;;12.49;55.30;101938.77;106873;1253;25419;-55
2024/03/12 06:27:38;;;;;;;22.60;11.60;;;;;;;12.49;55.25;101932.13;107027;1257;25369;-55
2024/03/12 06:30:06;;;;;;;19.20;11.10;;;;;;;12.51;55.21;101933.16;106917;1253;24347;-55
2024/03/12 06:32:34;;;;;;;16.50;11.70;;;;;;;12.54;55.05;101929.48;106893;1272;25379;-58
2024/03/12 06:35:01;;;;;;;22.20;11.00;;;;;;;12.55;54.90;101920.59;106639;1267;25378;-55
2024/03/12 06:37:29;;;;;;;22.20;11.50;;;;;;;12.49;55.11;101919.96;106924;1256;25380;-55
2024/03/12 06:39:57;;;;;;;28.00;12.70;;;;;;;12.31;55.53;101919.81;106664;1275;24180;-56
2024/03/12 06:42:31;;;;;;;20.30;11.30;;;;;;;12.28;55.67;101922.10;107111;1257;25432;-56
2024/03/12 06:45:00;;;;;;;18.00;11.40;;;;;;;12.34;55.64;101924.12;106818;1256;23864;-56
2024/03/12 06:47:28;;;;;;;21.90;12.00;;;;;;;12.57;54.93;101929.27;106906;1254;22536;-55
2024/03/12 06:49:55;;;;;;;23.20;12.20;;;;;;;12.61;54.59;101924.16;107049;1263;25338;-55
2024/03/12 06:52:22;;;;;;;17.80;11.20;;;;;;;12.62;54.55;101916.49;106862;1259;25431;-56
2024/03/12 06:54:50;;;;;;;23.80;11.80;;;;;;;12.63;54.36;101919.09;107015;1256;25453;-56
2024/03/12 06:57:21;;;;;;;21.50;11.90;;;;;;;12.65;54.45;101916.80;107034;1256;25488;-56
2024/03/12 06:59:48;;;;;;;19.50;11.00;;;;;;;12.67;54.48;101918.01;106136;1268;1002997;-56
2024/03/12 07:02:19;;;;;;;17.70;10.80;;;;;;;12.69;54.37;101916.60;106614;1271;25410;-56
2024/03/12 07:04:48;;;;;;;20.70;11.80;;;;;;;12.69;54.32;101906.15;106948;1253;24242;-56
2024/03/12 07:07:21;;;;;;;22.60;11.70;;;;;;;12.72;54.46;101897.94;106389;1264;24229;-55
2024/03/12 07:09:51;;;;;;;19.30;10.80;;;;;;;12.75;54.28;101890.39;106498;1272;25373;-56
2024/03/12 07:12:19;;;;;;;17.20;11.50;;;;;;;12.79;54.35;101892.44;106724;1268;25389;-56
2024/03/12 07:14:54;;;;;;;18.30;10.80;;;;;;;12.76;54.45;101898.74;106161;1275;25355;-56
2024/03/12 07:17:21;;;;;;;20.40;11.20;;;;;;;12.76;54.45;101896.30;106952;1272;25380;-56
2024/03/12 07:19:49;;;;;;;18.20;10.80;;;;;;;12.87;54.03;101890.59;106848;1268;25396;-55
2024/03/12 07:22:20;;;;;;;21.00;11.10;;;;;;;12.76;54.23;101889.87;106868;1257;25341;-56
2024/03/12 07:24:47;;;;;;;22.30;11.40;;;;;;;12.77;54.17;101886.88;106776;1274;25379;-56
2024/03/12 07:27:14;;;;;;;25.60;12.90;;;;;;;12.85;53.94;101878.08;106969;1265;25491;-56
2024/03/12 07:29:44;;;;;;;23.20;12.20;;;;;;;12.87;53.88;101876.84;106810;1267;25429;-56
2024/03/12 07:32:13;;;;;;;27.10;13.30;;;;;;;12.85;53.74;101883.98;107085;1270;25404;-54
2024/03/12 07:34:42;;;;;;;21.70;13.50;;;;;;;12.82;53.71;101880.20;106754;1271;25428;-55
2024/03/12 07:37:11;;;;;;;27.70;14.00;;;;;;;12.79;53.78;101878.86;106092;1270;1003623;-54
2024/03/12 07:39:41;;;;;;;19.80;13.00;;;;;;;12.75;53.99;101877.69;107056;1269;25470;-54
2024/03/12 07:42:18;;;;;;;23.70;14.60;;;;;;;12.72;54.09;101878.07;107106;1267;25389;-54
2024/03/12 07:44:48;;;;;;;23.50;14.80;;;;;;;12.73;54.15;101882.08;107125;1267;25416;-55
2024/03/12 07:47:15;;;;;;;21.90;14.20;;;;;;;12.75;54.08;101887.27;107132;1272;25501;-55
2024/03/12 07:49:42;;;;;;;22.20;13.30;;;;;;;12.74;54.09;101894.06;107044;1268;25373;-55
2024/03/12 07:52:10;;;;;;;23.30;13.60;;;;;;;12.73;54.05;101899.48;107025;1266;25408;-55
2024/03/12 07:54:38;;;;;;;24.30;14.00;;;;;;;12.72;54.12;101897.77;107067;1267;24404;-55
2024/03/12 07:57:05;;;;;;;23.80;13.80;;;;;;;12.69;54.22;101896.05;106811;1267;25355;-55
2024/03/12 07:59:32;;;;;;;20.30;13.60;;;;;;;12.69;54.23;101895.70;106088;1273;1003038;-55
2024/03/12 08:02:03;;;;;;;22.70;14.10;;;;;;;12.67;54.26;101887.89;106830;1265;25537;-55
2024/03/12 08:04:31;;;;;;;24.60;13.40;;;;;;;12.65;54.31;101883.02;106956;1268;25419;-55
2024/03/12 08:06:58;;;;;;;28.20;12.90;;;;;;;12.63;54.47;101881.30;107086;1268;25419;-55
2024/03/12 08:09:25;;;;;;;27.70;14.10;;;;;;;12.63;54.55;101869.84;107044;1267;25369;-55
2024/03/12 08:11:53;;;;;;;20.60;14.00;;;;;;;12.62;54.50;101872.29;107028;1267;25488;-55
2024/03/12 08:14:20;;;;;;;25.10;14.50;;;;;;;12.61;54.70;101877.52;107271;1268;25380;-55
2024/03/12 08:16:49;;;;;;;23.50;14.40;;;;;;;12.59;54.78;101871.98;106998;1272;25379;-55
2024/03/12 08:19:16;;;;;;;24.20;15.20;;;;;;;12.57;54.81;101863.64;106306;1267;1002921;-55
2024/03/12 08:21:43;;;;;;;23.20;15.80;;;;;;;12.56;54.92;101846.60;106699;1274;25422;-55
2024/03/12 08:24:10;;;;;;;26.50;15.70;;;;;;;12.56;54.91;101838.60;106995;1271;25379;-55
2024/03/12 08:26:38;;;;;;;20.70;14.60;;;;;;;12.54;54.85;101828.70;107283;1267;25435;-56
2024/03/12 08:29:04;;;;;;;23.70;14.90;;;;;;;12.53;54.84;101823.66;107077;1267;22520;-57
2024/03/12 08:31:33;;;;;;;27.60;15.70;;;;;;;12.52;54.85;101808.54;107214;1267;22531;-56
2024/03/12 08:34:15;;;;;;;24.00;15.60;;;;;;;12.49;54.91;101801.27;107323;1266;25385;-56
2024/03/12 08:36:42;;;;;;;30.40;15.90;;;;;;;12.47;55.06;101797.27;106922;1272;25475;-56
2024/03/12 08:39:13;;;;;;;29.10;16.10;;;;;;;12.45;55.12;101794.18;107047;1269;23853;-56
2024/03/12 08:41:40;;;;;;;31.20;16.90;;;;;;;12.43;55.11;101802.21;107106;1267;25364;-56
2024/03/12 08:44:08;;;;;;;30.00;17.50;;;;;;;12.40;55.25;101803.64;106477;1275;25466;-57
2024/03/12 08:46:35;;;;;;;36.30;18.80;;;;;;;12.39;55.39;101808.36;106725;1267;22536;-57
2024/03/12 08:49:10;;;;;;;25.60;17.70;;;;;;;12.37;55.48;101806.29;106834;1268;25355;-57
2024/03/12 08:51:39;;;;;;;26.20;17.20;;;;;;;12.35;55.57;101798.66;106793;1271;25351;-56
2024/03/12 08:54:06;;;;;;;30.30;19.00;;;;;;;12.33;55.63;101793.30;107233;1268;25264;-56
2024/03/12 08:56:35;;;;;;;30.80;20.20;;;;;;;12.32;55.73;101795.05;107297;1267;25495;-57
2024/03/12 08:59:03;;;;;;;34.00;19.00;;;;;;;12.32;55.74;101803.57;107041;1266;24190;-58
2024/03/12 09:01:31;;;;;;;30.40;19.90;;;;;;;12.33;55.84;101810.34;107209;1267;25424;-57
2024/03/12 09:03:59;;;;;;;28.70;19.20;;;;;;;12.33;55.93;101818.35;106938;1267;25355;-56
2024/03/12 09:06:26;;;;;;;32.20;19.00;;;;;;;12.32;55.93;101819.76;107231;1266;25465;-58
2024/03/12 09:08:54;;;;;;;30.90;20.70;;;;;;;12.09;56.42;101828.36;106959;1268;25507;-56
2024/03/12 09:11:21;;;;;;;35.90;21.90;;;;;;;11.99;56.80;101828.99;107045;1269;25459;-57
2024/03/12 09:13:50;;;;;;;38.10;22.40;;;;;;;12.04;56.73;101823.73;106176;1267;1002588;-57
2024/03/12 09:16:17;;;;;;;32.30;20.30;;;;;;;12.13;56.51;101824.84;107068;1270;25491;-57
2024/03/12 09:18:44;;;;;;;37.00;22.20;;;;;;;12.18;56.51;101825.83;106604;1266;1003482;-57
2024/03/12 09:21:15;;;;;;;29.60;20.30;;;;;;;12.19;56.51;101828.77;107334;1267;22516;-57
2024/03/12 09:23:44;;;;;;;32.40;21.60;;;;;;;12.19;56.51;101843.73;107200;1268;25428;-56
2024/03/12 09:26:27;;;;;;;31.30;21.60;;;;;;;12.18;56.61;101840.78;107275;1269;25418;-57
2024/03/12 09:28:55;;;;;;;32.80;23.00;;;;;;;12.16;56.62;101841.67;106420;1266;1003740;-57
2024/03/12 09:31:22;;;;;;;35.40;21.90;;;;;;;12.15;56.85;101840.30;106784;1266;25400;-57
2024/03/12 09:33:51;;;;;;;34.90;22.30;;;;;;;12.14;57.05;101835.61;107337;1272;25409;-57
2024/03/12 09:36:20;;;;;;;35.90;21.40;;;;;;;12.16;56.90;101834.20;106392;1269;1003826;-57
2024/03/12 09:38:50;;;;;;;37.60;21.60;;;;;;;12.16;56.97;101841.84;107515;1265;25428;-57
2024/03/12 09:41:18;;;;;;;40.70;22.60;;;;;;;12.17;57.05;101841.32;107362;1268;24220;-57
2024/03/12 09:43:46;;;;;;;37.00;21.90;;;;;;;12.19;56.96;101838.34;107400;1266;22534;-56
2024/03/12 09:46:14;;;;;;;34.90;21.20;;;;;;;12.21;56.99;101846.31;107043;1268;25421;-57
2024/03/12 09:48:42;;;;;;;30.90;20.40;;;;;;;12.23;56.96;101849.27;106817;1267;24273;-57
2024/03/12 09:51:10;;;;;;;38.70;24.20;;;;;;;12.25;57.02;101850.63;106821;1266;24400;-56
2024/03/12 09:53:37;;;;;;;36.30;22.70;;;;;;;12.27;57.12;101849.05;107222;1266;25348;-57
2024/03/12 09:56:06;;;;;;;39.70;21.90;;;;;;;12.31;57.25;101840.48;107217;1266;25396;-57
2024/03/12 09:58:33;;;;;;;38.60;23.70;;;;;;;12.35;57.33;101831.73;106905;1250;25290;-56
2024/03/12 10:01:02;;;;;;;30.60;20.70;;;;;;;12.37;57.33;101819.34;107313;1267;25498;-57
2024/03/12 10:03:35;;;;;;;34.60;22.20;;;;;;;12.39;57.08;101810.27;106550;1256;1002863;-57
2024/03/12 10:06:03;;;;;;;37.30;23.10;;;;;;;12.41;57.08;101797.19;107026;1269;24400;-57
2024/03/12 10:08:31;;;;;;;35.50;22.20;;;;;;;12.43;57.21;101794.91;107060;1271;25800;-56
2024/03/12 10:11:01;;;;;;;37.80;22.00;;;;;;;12.45;57.04;101790.35;107129;1266;25428;-57
2024/03/12 10:13:29;;;;;;;37.90;22.60;;;;;;;12.47;56.92;101788.23;107551;1265;25424;-57
2024/03/12 10:16:01;;;;;;;46.70;23.30;;;;;;;12.48;57.01;101779.70;106862;1270;25451;-57
2024/03/12 10:18:30;;;;;;;32.60;21.60;;;;;;;12.50;56.96;101778.98;106720;1271;22532;-57
2024/03/12 10:20:58;;;;;;;36.10;22.00;;;;;;;12.50;56.80;101779.50;106055;1270;1003036;-57
2024/03/12 10:23:27;;;;;;;37.70;21.90;;;;;;;12.48;56.69;101802.67;106912;1270;25312;-56
2024/03/12 10:26:17;;;;;;;42.70;21.60;;;;;;;12.47;56.66;101843.75;106700;1270;22561;-57
2024/03/12 10:28:45;;;;;;;30.60;20.80;;;;;;;12.45;56.69;101880.83;106608;1268;25531;-57
2024/03/12 10:35:50;;;;;;;31.40;20.00;;;;;;;12.08;57.73;101917.60;104813;1285;558154;-57
2024/03/12 10:38:27;;;;;;;29.90;20.20;;;;;;;12.37;56.98;101923.40;106077;1283;25311;-57
2024/03/12 10:40:56;;;;;;;29.20;19.10;;;;;;;12.41;56.78;101919.34;105786;1286;25395;-56
2024/03/12 10:43:26;;;;;;;34.50;18.70;;;;;;;12.41;56.66;101918.64;105964;1288;22666;-56
2024/03/12 10:45:56;;;;;;;31.60;20.20;;;;;;;12.40;56.77;101913.62;105380;1267;1003042;-57
2024/03/12 10:48:25;;;;;;;33.00;18.60;;;;;;;12.40;56.74;101912.41;105909;1284;261312;-56
2024/03/12 10:50:54;;;;;;;35.10;18.10;;;;;;;12.39;56.84;101909.63;106030;1279;23409;-57
2024/03/12 10:53:21;;;;;;;35.60;19.90;;;;;;;12.40;56.88;101904.58;106155;1278;25465;-57
2024/03/12 10:55:48;;;;;;;33.20;18.90;;;;;;;12.40;56.93;101900.05;106422;1273;24247;-57
2024/03/12 10:58:15;;;;;;;35.50;19.80;;;;;;;12.40;57.05;101889.95;106829;1264;24231;-57
2024/03/12 11:00:44;;;;;;;30.70;18.80;;;;;;;12.40;57.08;101877.95;106786;1279;25500;-56
2024/03/12 11:03:13;;;;;;;38.10;20.20;;;;;;;12.40;57.14;101874.47;106738;1274;25448;-57
2024/03/12 11:05:42;;;;;;;27.20;18.90;;;;;;;12.39;57.07;101863.34;106746;1273;25421;-58
2024/03/12 11:08:09;;;;;;;38.80;18.40;;;;;;;12.39;57.18;101859.52;106476;1273;25497;-57
2024/03/12 11:10:36;;;;;;;29.70;19.20;;;;;;;12.39;57.20;101852.04;106422;1279;25422;-57
2024/03/12 11:13:07;;;;;;;35.70;19.20;;;;;;;12.39;57.25;101842.64;106755;1273;24272;-58
2024/03/12 11:15:35;;;;;;;38.40;19.20;;;;;;;12.38;57.39;101831.34;106774;1273;25572;-57